sensor_id;sensor_type;location;lat;lon;timestamp;temperature;humidity
34873;DHT22;21084;51.098;14.506;2022-08-23T00:01:21;15.70;99.90
34873;DHT22;21084;51.098;14.506;2022-08-23T00:03:26;15.70;99.90
34873;DHT22;21084;51.098;14.506;2022-08-23T00:05:31;15.80;99.90
34873;DHT22;21084;51.098;14.506;2022-08-23T00:07:36;15.70;99.90
34873;DHT22;21084;51.098;14.506;2022-08-23T00:09:41;15.70;99.90
34873;DHT22;21084;51.098;14.506;2022-08-23T00:11:46;15.70;99.90
34873;DHT22;21084;51.098;14.506;2022-08-23T00:13:49;15.70;99.90
34873;DHT22;21084;51.098;14.506;2022-08-23T00:15:53;15.70;99.90
34873;DHT22;21084;51.098;14.506;2022-08-23T00:17:56;15.60;99.90
34873;DHT22;21084;51.098;14.506;2022-08-23T00:19:59;15.60;99.90
34873;DHT22;21084;51.098;14.506;2022-08-23T00:22:05;15.70;99.90
34873;DHT22;21084;51.098;14.506;2022-08-23T00:24:10;15.70;99.90
34873;DHT22;21084;51.098;14.506;2022-08-23T00:26:13;15.60;99.90
34873;DHT22;21084;51.098;14.506;2022-08-23T00:28:16;15.70;99.90
34873;DHT22;21084;51.098;14.506;2022-08-23T00:30:19;15.60;99.90
34873;DHT22;21084;51.098;14.506;2022-08-23T00:32:24;15.60;99.90
34873;DHT22;21084;51.098;14.506;2022-08-23T00:34:27;15.60;99.90
34873;DHT22;21084;51.098;14.506;2022-08-23T00:36:30;15.70;99.90
34873;DHT22;21084;51.098;14.506;2022-08-23T00:38:36;15.70;99.90
34873;DHT22;21084;51.098;14.506;2022-08-23T00:40:40;15.60;99.90
34873;DHT22;21084;51.098;14.506;2022-08-23T00:42:48;15.60;99.90
34873;DHT22;21084;51.098;14.506;2022-08-23T00:44:53;15.60;99.90
34873;DHT22;21084;51.098;14.506;2022-08-23T00:46:57;15.60;99.90
34873;DHT22;21084;51.098;14.506;2022-08-23T00:49:02;15.60;99.90
34873;DHT22;21084;51.098;14.506;2022-08-23T00:51:10;15.60;99.90
34873;DHT22;21084;51.098;14.506;2022-08-23T00:53:17;15.70;99.90
34873;DHT22;21084;51.098;14.506;2022-08-23T00:55:24;15.70;99.90
34873;DHT22;21084;51.098;14.506;2022-08-23T00:57:28;15.70;99.90
34873;DHT22;21084;51.098;14.506;2022-08-23T00:59:33;15.60;99.90
34873;DHT22;21084;51.098;14.506;2022-08-23T01:01:36;15.60;99.90
34873;DHT22;21084;51.098;14.506;2022-08-23T01:03:41;15.60;99.90
34873;DHT22;21084;51.098;14.506;2022-08-23T01:05:52;15.60;99.90
34873;DHT22;21084;51.098;14.506;2022-08-23T01:07:58;15.70;99.90
34873;DHT22;21084;51.098;14.506;2022-08-23T01:10:07;15.70;99.90
34873;DHT22;21084;51.098;14.506;2022-08-23T01:12:30;15.70;99.90
34873;DHT22;21084;51.098;14.506;2022-08-23T01:14:39;15.70;99.90
34873;DHT22;21084;51.098;14.506;2022-08-23T01:16:46;15.60;99.90
34873;DHT22;21084;51.098;14.506;2022-08-23T01:18:52;15.60;99.90
34873;DHT22;21084;51.098;14.506;2022-08-23T01:21:00;15.60;99.90
34873;DHT22;21084;51.098;14.506;2022-08-23T01:25:17;15.60;99.90
34873;DHT22;21084;51.098;14.506;2022-08-23T01:27:20;15.60;99.90
34873;DHT22;21084;51.098;14.506;2022-08-23T01:29:23;15.70;99.90
34873;DHT22;21084;51.098;14.506;2022-08-23T01:31:27;15.60;99.90
34873;DHT22;21084;51.098;14.506;2022-08-23T01:33:30;15.70;99.90
34873;DHT22;21084;51.098;14.506;2022-08-23T01:35:37;15.60;99.90
34873;DHT22;21084;51.098;14.506;2022-08-23T01:37:42;15.70;99.90
34873;DHT22;21084;51.098;14.506;2022-08-23T01:39:45;15.70;99.90
34873;DHT22;21084;51.098;14.506;2022-08-23T01:41:51;15.60;99.90
34873;DHT22;21084;51.098;14.506;2022-08-23T01:43:54;15.70;99.90
34873;DHT22;21084;51.098;14.506;2022-08-23T01:45:57;15.70;99.90
34873;DHT22;21084;51.098;14.506;2022-08-23T01:48:01;15.60;99.90
34873;DHT22;21084;51.098;14.506;2022-08-23T01:50:05;15.70;99.90
34873;DHT22;21084;51.098;14.506;2022-08-23T01:52:08;15.70;99.90
34873;DHT22;21084;51.098;14.506;2022-08-23T01:54:12;15.70;99.90
34873;DHT22;21084;51.098;14.506;2022-08-23T01:56:16;15.70;99.90
34873;DHT22;21084;51.098;14.506;2022-08-23T01:58:25;15.70;99.90
34873;DHT22;21084;51.098;14.506;2022-08-23T02:00:31;15.70;99.90
34873;DHT22;21084;51.098;14.506;2022-08-23T02:02:34;15.70;99.90
34873;DHT22;21084;51.098;14.506;2022-08-23T02:04:37;15.70;99.90
34873;DHT22;21084;51.098;14.506;2022-08-23T02:06:40;15.70;99.90
34873;DHT22;21084;51.098;14.506;2022-08-23T02:08:44;15.70;99.90
34873;DHT22;21084;51.098;14.506;2022-08-23T02:10:47;15.70;99.90
34873;DHT22;21084;51.098;14.506;2022-08-23T02:12:50;15.70;99.90
34873;DHT22;21084;51.098;14.506;2022-08-23T02:14:55;15.70;99.90
34873;DHT22;21084;51.098;14.506;2022-08-23T02:16:58;15.70;99.90
34873;DHT22;21084;51.098;14.506;2022-08-23T02:19:09;15.70;99.90
34873;DHT22;21084;51.098;14.506;2022-08-23T02:21:13;15.70;99.90
34873;DHT22;21084;51.098;14.506;2022-08-23T02:23:16;15.70;99.90
34873;DHT22;21084;51.098;14.506;2022-08-23T02:25:19;15.80;99.90
34873;DHT22;21084;51.098;14.506;2022-08-23T02:27:22;15.80;99.90
34873;DHT22;21084;51.098;14.506;2022-08-23T02:29:26;15.70;99.90
34873;DHT22;21084;51.098;14.506;2022-08-23T02:31:33;15.80;99.90
34873;DHT22;21084;51.098;14.506;2022-08-23T02:33:36;15.70;99.90
34873;DHT22;21084;51.098;14.506;2022-08-23T02:35:39;15.70;99.90
34873;DHT22;21084;51.098;14.506;2022-08-23T02:37:42;15.70;99.90
34873;DHT22;21084;51.098;14.506;2022-08-23T02:39:48;15.80;99.90
34873;DHT22;21084;51.098;14.506;2022-08-23T02:41:51;15.80;99.90
34873;DHT22;21084;51.098;14.506;2022-08-23T02:43:54;15.80;99.90
34873;DHT22;21084;51.098;14.506;2022-08-23T02:45:58;15.80;99.90
34873;DHT22;21084;51.098;14.506;2022-08-23T02:48:04;15.70;99.90
34873;DHT22;21084;51.098;14.506;2022-08-23T02:50:08;15.70;99.90
34873;DHT22;21084;51.098;14.506;2022-08-23T02:52:11;15.80;99.90
34873;DHT22;21084;51.098;14.506;2022-08-23T02:54:14;15.70;99.90
34873;DHT22;21084;51.098;14.506;2022-08-23T02:56:17;15.70;99.90
34873;DHT22;21084;51.098;14.506;2022-08-23T02:58:24;15.70;99.90
34873;DHT22;21084;51.098;14.506;2022-08-23T03:00:27;15.70;99.90
34873;DHT22;21084;51.098;14.506;2022-08-23T03:02:30;15.70;99.90
34873;DHT22;21084;51.098;14.506;2022-08-23T03:04:36;15.70;99.90
34873;DHT22;21084;51.098;14.506;2022-08-23T03:06:39;15.70;99.90
34873;DHT22;21084;51.098;14.506;2022-08-23T03:08:43;15.70;99.90
34873;DHT22;21084;51.098;14.506;2022-08-23T03:10:48;15.70;99.90
34873;DHT22;21084;51.098;14.506;2022-08-23T03:12:51;15.70;99.90
34873;DHT22;21084;51.098;14.506;2022-08-23T03:14:54;15.70;99.90
34873;DHT22;21084;51.098;14.506;2022-08-23T03:16:59;15.80;99.90
34873;DHT22;21084;51.098;14.506;2022-08-23T03:19:02;15.80;99.90
34873;DHT22;21084;51.098;14.506;2022-08-23T03:21:08;15.80;99.90
34873;DHT22;21084;51.098;14.506;2022-08-23T03:23:12;15.80;99.90
34873;DHT22;21084;51.098;14.506;2022-08-23T03:25:15;15.80;99.90
34873;DHT22;21084;51.098;14.506;2022-08-23T03:27:18;15.80;99.90
34873;DHT22;21084;51.098;14.506;2022-08-23T03:29:21;15.80;99.90
34873;DHT22;21084;51.098;14.506;2022-08-23T03:31:24;15.80;99.90
34873;DHT22;21084;51.098;14.506;2022-08-23T03:33:30;15.80;99.90
34873;DHT22;21084;51.098;14.506;2022-08-23T03:35:34;15.80;99.90
34873;DHT22;21084;51.098;14.506;2022-08-23T03:37:39;15.80;99.90
34873;DHT22;21084;51.098;14.506;2022-08-23T03:39:43;15.90;99.90
34873;DHT22;21084;51.098;14.506;2022-08-23T03:41:46;15.90;99.90
34873;DHT22;21084;51.098;14.506;2022-08-23T03:43:49;15.90;99.90
34873;DHT22;21084;51.098;14.506;2022-08-23T03:45:52;15.90;99.90
34873;DHT22;21084;51.098;14.506;2022-08-23T03:47:55;15.90;99.90
34873;DHT22;21084;51.098;14.506;2022-08-23T03:49:58;15.90;99.90
34873;DHT22;21084;51.098;14.506;2022-08-23T03:52:02;15.90;99.90
34873;DHT22;21084;51.098;14.506;2022-08-23T03:54:08;15.90;99.90
34873;DHT22;21084;51.098;14.506;2022-08-23T03:56:20;15.90;99.90
34873;DHT22;21084;51.098;14.506;2022-08-23T03:58:23;15.90;99.90
34873;DHT22;21084;51.098;14.506;2022-08-23T04:00:27;15.90;99.90
34873;DHT22;21084;51.098;14.506;2022-08-23T04:02:29;15.90;99.90
34873;DHT22;21084;51.098;14.506;2022-08-23T04:04:32;15.90;99.90
34873;DHT22;21084;51.098;14.506;2022-08-23T04:06:35;16.00;99.90
34873;DHT22;21084;51.098;14.506;2022-08-23T04:08:38;16.00;99.90
34873;DHT22;21084;51.098;14.506;2022-08-23T04:10:44;16.00;99.90
34873;DHT22;21084;51.098;14.506;2022-08-23T04:12:47;16.00;99.90
34873;DHT22;21084;51.098;14.506;2022-08-23T04:14:50;16.00;99.90
34873;DHT22;21084;51.098;14.506;2022-08-23T04:16:53;16.00;99.90
34873;DHT22;21084;51.098;14.506;2022-08-23T04:18:57;16.00;99.90
34873;DHT22;21084;51.098;14.506;2022-08-23T04:21:05;15.90;99.90
34873;DHT22;21084;51.098;14.506;2022-08-23T04:23:09;16.00;99.90
34873;DHT22;21084;51.098;14.506;2022-08-23T04:25:12;16.00;99.90
34873;DHT22;21084;51.098;14.506;2022-08-23T04:27:37;16.00;99.90
34873;DHT22;21084;51.098;14.506;2022-08-23T04:29:40;16.00;99.90
34873;DHT22;21084;51.098;14.506;2022-08-23T04:31:44;16.00;99.90
34873;DHT22;21084;51.098;14.506;2022-08-23T04:33:50;16.10;99.90
34873;DHT22;21084;51.098;14.506;2022-08-23T04:35:54;16.10;99.90
34873;DHT22;21084;51.098;14.506;2022-08-23T04:37:57;16.10;99.90
34873;DHT22;21084;51.098;14.506;2022-08-23T04:40:00;16.10;99.90
34873;DHT22;21084;51.098;14.506;2022-08-23T04:42:04;16.10;99.90
34873;DHT22;21084;51.098;14.506;2022-08-23T04:44:10;16.10;99.90
34873;DHT22;21084;51.098;14.506;2022-08-23T04:46:13;16.20;99.90
34873;DHT22;21084;51.098;14.506;2022-08-23T04:48:17;16.20;99.90
34873;DHT22;21084;51.098;14.506;2022-08-23T04:50:20;16.10;99.90
34873;DHT22;21084;51.098;14.506;2022-08-23T04:52:23;16.20;99.90
34873;DHT22;21084;51.098;14.506;2022-08-23T04:54:26;16.20;99.90
34873;DHT22;21084;51.098;14.506;2022-08-23T04:56:29;16.20;99.90
34873;DHT22;21084;51.098;14.506;2022-08-23T04:58:33;16.20;99.90
34873;DHT22;21084;51.098;14.506;2022-08-23T05:00:39;16.20;99.90
34873;DHT22;21084;51.098;14.506;2022-08-23T05:02:42;16.20;99.90
34873;DHT22;21084;51.098;14.506;2022-08-23T05:04:45;16.20;99.90
34873;DHT22;21084;51.098;14.506;2022-08-23T05:06:47;16.20;99.90
34873;DHT22;21084;51.098;14.506;2022-08-23T05:08:50;16.30;99.90
34873;DHT22;21084;51.098;14.506;2022-08-23T05:10:53;16.30;99.90
34873;DHT22;21084;51.098;14.506;2022-08-23T05:12:56;16.30;99.90
34873;DHT22;21084;51.098;14.506;2022-08-23T05:14:59;16.40;99.90
34873;DHT22;21084;51.098;14.506;2022-08-23T05:17:05;16.30;99.90
34873;DHT22;21084;51.098;14.506;2022-08-23T05:19:09;16.30;99.90
34873;DHT22;21084;51.098;14.506;2022-08-23T05:21:14;16.30;99.90
34873;DHT22;21084;51.098;14.506;2022-08-23T05:23:17;16.30;99.90
34873;DHT22;21084;51.098;14.506;2022-08-23T05:25:25;16.40;99.90
34873;DHT22;21084;51.098;14.506;2022-08-23T05:27:28;16.40;99.90
34873;DHT22;21084;51.098;14.506;2022-08-23T05:29:31;16.40;99.90
34873;DHT22;21084;51.098;14.506;2022-08-23T05:31:34;16.40;99.90
34873;DHT22;21084;51.098;14.506;2022-08-23T05:33:41;16.50;99.90
34873;DHT22;21084;51.098;14.506;2022-08-23T05:35:45;16.50;99.90
34873;DHT22;21084;51.098;14.506;2022-08-23T05:37:48;16.50;99.90
34873;DHT22;21084;51.098;14.506;2022-08-23T05:39:51;16.50;99.90
34873;DHT22;21084;51.098;14.506;2022-08-23T05:41:54;16.50;99.90
34873;DHT22;21084;51.098;14.506;2022-08-23T05:43:57;16.60;99.90
34873;DHT22;21084;51.098;14.506;2022-08-23T05:46:04;16.60;99.90
34873;DHT22;21084;51.098;14.506;2022-08-23T05:48:14;16.60;99.90
34873;DHT22;21084;51.098;14.506;2022-08-23T05:50:22;16.60;99.90
34873;DHT22;21084;51.098;14.506;2022-08-23T05:52:25;16.70;99.90
34873;DHT22;21084;51.098;14.506;2022-08-23T05:54:28;16.70;99.90
34873;DHT22;21084;51.098;14.506;2022-08-23T05:56:33;16.90;99.90
34873;DHT22;21084;51.098;14.506;2022-08-23T05:58:36;16.90;99.90
34873;DHT22;21084;51.098;14.506;2022-08-23T06:00:39;16.90;99.90
34873;DHT22;21084;51.098;14.506;2022-08-23T06:02:43;17.00;99.90
34873;DHT22;21084;51.098;14.506;2022-08-23T06:04:46;17.00;99.90
34873;DHT22;21084;51.098;14.506;2022-08-23T06:06:51;17.00;99.90
34873;DHT22;21084;51.098;14.506;2022-08-23T06:08:54;17.10;99.90
34873;DHT22;21084;51.098;14.506;2022-08-23T06:11:02;17.00;99.90
34873;DHT22;21084;51.098;14.506;2022-08-23T06:13:05;17.20;99.90
34873;DHT22;21084;51.098;14.506;2022-08-23T06:15:09;17.20;99.90
34873;DHT22;21084;51.098;14.506;2022-08-23T06:17:12;17.10;99.90
34873;DHT22;21084;51.098;14.506;2022-08-23T06:19:15;17.10;99.90
34873;DHT22;21084;51.098;14.506;2022-08-23T06:21:19;17.20;99.90
34873;DHT22;21084;51.098;14.506;2022-08-23T06:23:24;17.20;99.90
34873;DHT22;21084;51.098;14.506;2022-08-23T06:25:27;17.20;99.90
34873;DHT22;21084;51.098;14.506;2022-08-23T06:27:32;17.20;99.90
34873;DHT22;21084;51.098;14.506;2022-08-23T06:29:35;17.20;99.90
34873;DHT22;21084;51.098;14.506;2022-08-23T06:31:40;17.20;99.90
34873;DHT22;21084;51.098;14.506;2022-08-23T06:33:43;17.30;99.90
34873;DHT22;21084;51.098;14.506;2022-08-23T06:35:46;17.30;99.90
34873;DHT22;21084;51.098;14.506;2022-08-23T06:37:49;17.40;99.90
34873;DHT22;21084;51.098;14.506;2022-08-23T06:39:55;17.40;99.90
34873;DHT22;21084;51.098;14.506;2022-08-23T06:41:59;17.50;99.90
34873;DHT22;21084;51.098;14.506;2022-08-23T06:44:03;17.40;99.90
34873;DHT22;21084;51.098;14.506;2022-08-23T06:46:11;17.40;99.90
34873;DHT22;21084;51.098;14.506;2022-08-23T06:48:15;17.40;99.90
34873;DHT22;21084;51.098;14.506;2022-08-23T06:50:20;17.40;99.90
34873;DHT22;21084;51.098;14.506;2022-08-23T06:52:24;17.50;99.90
34873;DHT22;21084;51.098;14.506;2022-08-23T06:54:29;17.50;99.90
34873;DHT22;21084;51.098;14.506;2022-08-23T06:56:36;17.60;99.90
34873;DHT22;21084;51.098;14.506;2022-08-23T06:58:39;17.60;99.90
34873;DHT22;21084;51.098;14.506;2022-08-23T07:00:42;17.60;99.90
34873;DHT22;21084;51.098;14.506;2022-08-23T07:02:45;17.70;99.90
34873;DHT22;21084;51.098;14.506;2022-08-23T07:04:52;17.60;99.90
34873;DHT22;21084;51.098;14.506;2022-08-23T07:06:55;17.70;99.90
34873;DHT22;21084;51.098;14.506;2022-08-23T07:08:58;17.60;99.90
34873;DHT22;21084;51.098;14.506;2022-08-23T07:11:02;17.70;99.90
34873;DHT22;21084;51.098;14.506;2022-08-23T07:13:08;17.70;99.90
34873;DHT22;21084;51.098;14.506;2022-08-23T07:15:11;17.60;99.90
34873;DHT22;21084;51.098;14.506;2022-08-23T07:17:14;17.60;99.90
34873;DHT22;21084;51.098;14.506;2022-08-23T07:19:20;17.60;99.90
34873;DHT22;21084;51.098;14.506;2022-08-23T07:21:27;17.60;99.90
34873;DHT22;21084;51.098;14.506;2022-08-23T07:23:31;17.60;99.90
34873;DHT22;21084;51.098;14.506;2022-08-23T07:25:35;17.50;99.90
34873;DHT22;21084;51.098;14.506;2022-08-23T07:27:38;17.50;99.90
34873;DHT22;21084;51.098;14.506;2022-08-23T07:29:44;17.50;99.90
34873;DHT22;21084;51.098;14.506;2022-08-23T07:31:49;17.50;99.90
34873;DHT22;21084;51.098;14.506;2022-08-23T07:33:54;17.50;99.90
34873;DHT22;21084;51.098;14.506;2022-08-23T07:36:00;17.50;99.90
34873;DHT22;21084;51.098;14.506;2022-08-23T07:38:05;17.60;99.90
34873;DHT22;21084;51.098;14.506;2022-08-23T07:40:09;17.60;99.90
34873;DHT22;21084;51.098;14.506;2022-08-23T07:42:22;17.70;99.90
34873;DHT22;21084;51.098;14.506;2022-08-23T07:44:26;17.70;99.90
34873;DHT22;21084;51.098;14.506;2022-08-23T07:46:33;17.60;99.90
34873;DHT22;21084;51.098;14.506;2022-08-23T07:48:37;17.50;99.90
34873;DHT22;21084;51.098;14.506;2022-08-23T07:50:59;17.70;99.90
34873;DHT22;21084;51.098;14.506;2022-08-23T07:53:03;17.90;99.90
34873;DHT22;21084;51.098;14.506;2022-08-23T07:55:07;17.90;99.90
34873;DHT22;21084;51.098;14.506;2022-08-23T07:57:11;18.00;99.90
34873;DHT22;21084;51.098;14.506;2022-08-23T07:59:14;18.00;99.90
34873;DHT22;21084;51.098;14.506;2022-08-23T08:01:19;18.00;99.90
34873;DHT22;21084;51.098;14.506;2022-08-23T08:03:25;18.00;99.90
34873;DHT22;21084;51.098;14.506;2022-08-23T08:05:30;18.00;99.90
34873;DHT22;21084;51.098;14.506;2022-08-23T08:07:33;17.80;99.90
34873;DHT22;21084;51.098;14.506;2022-08-23T08:09:39;17.80;99.90
34873;DHT22;21084;51.098;14.506;2022-08-23T08:11:44;17.70;99.90
34873;DHT22;21084;51.098;14.506;2022-08-23T08:13:48;17.70;99.90
34873;DHT22;21084;51.098;14.506;2022-08-23T08:15:52;17.70;99.90
34873;DHT22;21084;51.098;14.506;2022-08-23T08:17:55;17.70;99.90
34873;DHT22;21084;51.098;14.506;2022-08-23T08:20:00;17.50;99.90
34873;DHT22;21084;51.098;14.506;2022-08-23T08:22:04;17.60;99.90
34873;DHT22;21084;51.098;14.506;2022-08-23T08:24:08;17.50;99.90
34873;DHT22;21084;51.098;14.506;2022-08-23T08:26:11;17.60;99.90
34873;DHT22;21084;51.098;14.506;2022-08-23T08:28:15;17.60;99.90
34873;DHT22;21084;51.098;14.506;2022-08-23T08:30:18;17.60;99.90
34873;DHT22;21084;51.098;14.506;2022-08-23T08:32:21;17.70;99.90
34873;DHT22;21084;51.098;14.506;2022-08-23T08:34:24;17.60;99.90
34873;DHT22;21084;51.098;14.506;2022-08-23T08:36:32;17.70;99.90
34873;DHT22;21084;51.098;14.506;2022-08-23T08:38:38;17.70;99.90
34873;DHT22;21084;51.098;14.506;2022-08-23T08:40:58;17.80;99.90
34873;DHT22;21084;51.098;14.506;2022-08-23T08:43:17;17.80;99.90
34873;DHT22;21084;51.098;14.506;2022-08-23T08:45:25;17.90;99.90
34873;DHT22;21084;51.098;14.506;2022-08-23T08:47:32;17.90;99.90
34873;DHT22;21084;51.098;14.506;2022-08-23T08:49:40;17.90;99.90
34873;DHT22;21084;51.098;14.506;2022-08-23T08:51:51;18.00;99.90
34873;DHT22;21084;51.098;14.506;2022-08-23T08:53:55;18.00;99.90
34873;DHT22;21084;51.098;14.506;2022-08-23T08:56:06;18.10;99.90
34873;DHT22;21084;51.098;14.506;2022-08-23T08:58:15;18.20;99.90
34873;DHT22;21084;51.098;14.506;2022-08-23T09:00:23;18.10;99.90
34873;DHT22;21084;51.098;14.506;2022-08-23T09:02:31;18.10;99.90
34873;DHT22;21084;51.098;14.506;2022-08-23T09:04:35;18.10;99.90
34873;DHT22;21084;51.098;14.506;2022-08-23T09:06:46;18.20;99.90
34873;DHT22;21084;51.098;14.506;2022-08-23T09:09:07;18.20;99.90
34873;DHT22;21084;51.098;14.506;2022-08-23T09:11:24;18.20;99.90
34873;DHT22;21084;51.098;14.506;2022-08-23T09:13:40;18.20;99.90
34873;DHT22;21084;51.098;14.506;2022-08-23T09:15:57;18.30;99.90
34873;DHT22;21084;51.098;14.506;2022-08-23T09:18:08;18.30;99.90
34873;DHT22;21084;51.098;14.506;2022-08-23T09:20:15;18.30;99.90
34873;DHT22;21084;51.098;14.506;2022-08-23T09:22:23;18.30;99.90
34873;DHT22;21084;51.098;14.506;2022-08-23T09:24:29;18.40;99.90
34873;DHT22;21084;51.098;14.506;2022-08-23T09:26:32;18.50;99.90
34873;DHT22;21084;51.098;14.506;2022-08-23T09:28:36;18.50;99.90
34873;DHT22;21084;51.098;14.506;2022-08-23T09:30:50;18.60;99.90
34873;DHT22;21084;51.098;14.506;2022-08-23T09:33:14;18.60;99.90
34873;DHT22;21084;51.098;14.506;2022-08-23T09:35:19;18.70;99.90
34873;DHT22;21084;51.098;14.506;2022-08-23T09:37:23;18.70;99.90
34873;DHT22;21084;51.098;14.506;2022-08-23T09:39:31;18.70;99.90
34873;DHT22;21084;51.098;14.506;2022-08-23T09:41:36;18.50;99.90
34873;DHT22;21084;51.098;14.506;2022-08-23T09:43:43;18.50;99.90
34873;DHT22;21084;51.098;14.506;2022-08-23T09:45:58;18.60;99.90
34873;DHT22;21084;51.098;14.506;2022-08-23T09:48:02;18.60;99.90
34873;DHT22;21084;51.098;14.506;2022-08-23T09:50:14;18.60;99.90
34873;DHT22;21084;51.098;14.506;2022-08-23T09:52:20;18.70;99.90
34873;DHT22;21084;51.098;14.506;2022-08-23T09:54:31;18.70;99.90
34873;DHT22;21084;51.098;14.506;2022-08-23T09:56:37;18.80;99.90
34873;DHT22;21084;51.098;14.506;2022-08-23T09:58:42;18.80;99.90
34873;DHT22;21084;51.098;14.506;2022-08-23T10:00:46;18.80;99.90
34873;DHT22;21084;51.098;14.506;2022-08-23T10:03:22;18.80;99.90
34873;DHT22;21084;51.098;14.506;2022-08-23T10:05:30;18.80;99.90
34873;DHT22;21084;51.098;14.506;2022-08-23T10:07:39;18.70;99.90
34873;DHT22;21084;51.098;14.506;2022-08-23T10:09:47;18.60;99.90
34873;DHT22;21084;51.098;14.506;2022-08-23T10:11:50;18.70;99.90
34873;DHT22;21084;51.098;14.506;2022-08-23T10:13:54;18.70;99.90
34873;DHT22;21084;51.098;14.506;2022-08-23T10:16:04;18.80;99.90
34873;DHT22;21084;51.098;14.506;2022-08-23T10:18:15;18.90;99.90
34873;DHT22;21084;51.098;14.506;2022-08-23T10:20:30;18.90;99.90
34873;DHT22;21084;51.098;14.506;2022-08-23T10:22:42;19.00;99.90
34873;DHT22;21084;51.098;14.506;2022-08-23T10:24:51;19.00;99.90
34873;DHT22;21084;51.098;14.506;2022-08-23T10:27:10;19.10;99.90
34873;DHT22;21084;51.098;14.506;2022-08-23T10:29:19;18.90;99.90
34873;DHT22;21084;51.098;14.506;2022-08-23T10:31:31;19.00;99.90
34873;DHT22;21084;51.098;14.506;2022-08-23T10:33:42;19.00;99.90
34873;DHT22;21084;51.098;14.506;2022-08-23T10:35:53;19.00;99.90
34873;DHT22;21084;51.098;14.506;2022-08-23T10:38:30;19.10;99.90
34873;DHT22;21084;51.098;14.506;2022-08-23T10:40:42;19.10;99.90
34873;DHT22;21084;51.098;14.506;2022-08-23T10:42:55;19.10;99.90
34873;DHT22;21084;51.098;14.506;2022-08-23T10:45:08;19.10;99.90
34873;DHT22;21084;51.098;14.506;2022-08-23T10:47:19;19.20;99.90
34873;DHT22;21084;51.098;14.506;2022-08-23T10:49:24;19.20;99.90
34873;DHT22;21084;51.098;14.506;2022-08-23T10:51:31;19.30;99.90
34873;DHT22;21084;51.098;14.506;2022-08-23T10:53:38;19.30;99.90
34873;DHT22;21084;51.098;14.506;2022-08-23T10:55:49;19.40;99.90
34873;DHT22;21084;51.098;14.506;2022-08-23T10:57:54;19.50;99.90
34873;DHT22;21084;51.098;14.506;2022-08-23T10:59:58;19.60;99.90
34873;DHT22;21084;51.098;14.506;2022-08-23T11:02:06;19.60;99.90
34873;DHT22;21084;51.098;14.506;2022-08-23T11:04:19;19.50;99.90
34873;DHT22;21084;51.098;14.506;2022-08-23T11:06:28;19.40;99.90
34873;DHT22;21084;51.098;14.506;2022-08-23T11:08:34;19.20;99.90
34873;DHT22;21084;51.098;14.506;2022-08-23T11:10:47;19.30;99.90
34873;DHT22;21084;51.098;14.506;2022-08-23T11:13:00;19.20;99.90
34873;DHT22;21084;51.098;14.506;2022-08-23T11:15:11;19.00;99.90
34873;DHT22;21084;51.098;14.506;2022-08-23T11:17:25;18.90;99.90
34873;DHT22;21084;51.098;14.506;2022-08-23T11:19:48;19.00;99.90
34873;DHT22;21084;51.098;14.506;2022-08-23T11:21:51;19.00;99.90
34873;DHT22;21084;51.098;14.506;2022-08-23T11:24:32;19.00;99.90
34873;DHT22;21084;51.098;14.506;2022-08-23T11:27:03;18.90;99.90
34873;DHT22;21084;51.098;14.506;2022-08-23T11:29:27;18.90;99.90
34873;DHT22;21084;51.098;14.506;2022-08-23T11:31:34;19.00;99.90
34873;DHT22;21084;51.098;14.506;2022-08-23T11:33:43;19.20;99.90
34873;DHT22;21084;51.098;14.506;2022-08-23T11:35:49;19.30;99.90
34873;DHT22;21084;51.098;14.506;2022-08-23T11:37:58;19.30;99.90
34873;DHT22;21084;51.098;14.506;2022-08-23T11:40:10;19.30;99.90
34873;DHT22;21084;51.098;14.506;2022-08-23T11:42:23;19.40;99.90
34873;DHT22;21084;51.098;14.506;2022-08-23T11:44:35;19.50;99.90
34873;DHT22;21084;51.098;14.506;2022-08-23T11:46:57;19.50;99.90
34873;DHT22;21084;51.098;14.506;2022-08-23T11:51:45;19.30;99.90
34873;DHT22;21084;51.098;14.506;2022-08-23T11:54:16;19.30;99.90
34873;DHT22;21084;51.098;14.506;2022-08-23T11:56:41;19.30;99.90
34873;DHT22;21084;51.098;14.506;2022-08-23T11:59:15;19.30;99.90
34873;DHT22;21084;51.098;14.506;2022-08-23T12:01:30;19.40;99.90
34873;DHT22;21084;51.098;14.506;2022-08-23T12:03:39;19.20;99.90
34873;DHT22;21084;51.098;14.506;2022-08-23T12:06:10;19.10;99.90
34873;DHT22;21084;51.098;14.506;2022-08-23T12:08:47;19.00;99.90
34873;DHT22;21084;51.098;14.506;2022-08-23T12:11:06;18.80;99.90
34873;DHT22;21084;51.098;14.506;2022-08-23T12:13:30;18.80;99.90
34873;DHT22;21084;51.098;14.506;2022-08-23T12:16:09;18.90;99.90
34873;DHT22;21084;51.098;14.506;2022-08-23T12:18:19;19.00;99.90
34873;DHT22;21084;51.098;14.506;2022-08-23T12:20:29;19.00;99.90
34873;DHT22;21084;51.098;14.506;2022-08-23T12:24:58;18.90;99.90
34873;DHT22;21084;51.098;14.506;2022-08-23T12:27:17;19.00;99.90
34873;DHT22;21084;51.098;14.506;2022-08-23T12:29:31;19.00;99.90
34873;DHT22;21084;51.098;14.506;2022-08-23T12:31:49;19.00;99.90
34873;DHT22;21084;51.098;14.506;2022-08-23T12:34:06;19.00;99.90
34873;DHT22;21084;51.098;14.506;2022-08-23T12:36:19;19.10;99.90
34873;DHT22;21084;51.098;14.506;2022-08-23T12:38:32;19.10;99.90
34873;DHT22;21084;51.098;14.506;2022-08-23T12:40:40;19.20;99.90
34873;DHT22;21084;51.098;14.506;2022-08-23T12:42:45;19.20;99.90
34873;DHT22;21084;51.098;14.506;2022-08-23T12:44:59;19.10;99.90
34873;DHT22;21084;51.098;14.506;2022-08-23T12:47:14;19.20;99.90
34873;DHT22;21084;51.098;14.506;2022-08-23T12:49:29;19.30;99.90
34873;DHT22;21084;51.098;14.506;2022-08-23T12:51:39;19.30;99.90
34873;DHT22;21084;51.098;14.506;2022-08-23T12:53:43;19.30;99.90
34873;DHT22;21084;51.098;14.506;2022-08-23T12:55:49;19.30;99.90
34873;DHT22;21084;51.098;14.506;2022-08-23T12:57:54;19.20;99.90
34873;DHT22;21084;51.098;14.506;2022-08-23T13:00:04;19.20;99.90
34873;DHT22;21084;51.098;14.506;2022-08-23T13:02:25;19.30;99.90
34873;DHT22;21084;51.098;14.506;2022-08-23T13:04:29;19.30;99.90
34873;DHT22;21084;51.098;14.506;2022-08-23T13:06:38;19.30;99.90
34873;DHT22;21084;51.098;14.506;2022-08-23T13:08:44;19.20;99.90
34873;DHT22;21084;51.098;14.506;2022-08-23T13:10:48;19.20;99.90
34873;DHT22;21084;51.098;14.506;2022-08-23T13:12:51;19.10;99.90
34873;DHT22;21084;51.098;14.506;2022-08-23T13:14:56;19.00;99.90
34873;DHT22;21084;51.098;14.506;2022-08-23T13:17:19;19.00;99.90